Columbus Municipal Airport Columbus US
ICAO: KOLU
IATA: OLU
Category: Medium
Scheduled Services: No

Elevation: 1447 ft
TransAlt. 18000 ft.

Airport Communications:
AWOS 3:125.525
MINNEAPOLIS CNTR:128.75
CTAF/UNICOM:123.05
RDO:122.2

KOLU Zoom In..

If you have problems with the map follow the link
https://www.worldairports.se/pages/airport.php?
ICAO=KOLU

Runways:

(A) RW 02 length 4135 ft width 150 ft
LOC 109.10 / hdg 22

(B) RW 14 length 6801 ft width 100 ft
LOC 109.10 / hdg 142

(C) RW 20 length 4135 ft width 150 ft
LOC 109.10 / hdg 202

(D) RW 32 length 6801 ft width 100 ft
LOC 109.10 / hdg 322

Location; KOLU
Day. 20 / Time. 20.56 Zulu
* Altimeter: 29.67
* Temperature: -02° c. -28.4°f.
* Wind from: 230° Speed 12 kn.
Dewpoint: -07° c.
Visibility: 10 Statute Miles.
Clouds: Clear (automated report).

KOLU 202056Z AUTO 23012KT 10SM CLR M02/M07 A2967 RMK AO2 SLP069 60000 T10171072 55005 FZRANO


Wind From 230°
Speed 12 kn.

 
 
jpsmedia.com for Web Design worldairports.se 2019   terms of use